createdAt,value
2022-10-10T00:01:53.417Z,101707.44
2022-10-10T00:04:57.239Z,101704.84
2022-10-10T00:08:00.983Z,101704.84
2022-10-10T00:11:05.528Z,101711.81
2022-10-10T00:14:09.276Z,101705.72
2022-10-10T00:17:14.306Z,101713.56
2022-10-10T00:20:21.176Z,101701.41
2022-10-10T00:23:25.436Z,101700.56
2022-10-10T00:26:29.810Z,101706.63
2022-10-10T00:29:33.522Z,101705.78
2022-10-10T00:32:39.017Z,101702.31
2022-10-10T00:35:43.154Z,101699.72
2022-10-10T00:38:46.730Z,101697.97
2022-10-10T00:41:50.405Z,101701.47
2022-10-10T00:45:29.176Z,101692.81
2022-10-10T00:48:38.090Z,101692.81
2022-10-10T00:51:42.884Z,101696.31
2022-10-10T00:54:46.506Z,101691.97
2022-10-10T00:57:52.239Z,101684.13
2022-10-10T01:00:56.783Z,101672.81
2022-10-10T01:04:03.774Z,101682.38
2022-10-10T01:07:12.560Z,101679.81
2022-10-10T01:10:22.987Z,101674.59
2022-10-10T01:13:36.104Z,101675.47
2022-10-10T01:16:48.601Z,101672.03
2022-10-10T01:20:32.296Z,101672.03
2022-10-10T01:24:09.459Z,101665.09
2022-10-10T01:27:33.400Z,101668.59
2022-10-10T01:30:40.147Z,101660.78
2022-10-10T01:33:55.882Z,101662.47
2022-10-10T01:37:06.939Z,101656.41
2022-10-10T01:40:25.061Z,101645.09
2022-10-10T01:43:28.725Z,101647.72
2022-10-10T01:46:35.176Z,101641.63
2022-10-10T01:49:41.891Z,101637.31
2022-10-10T01:53:01.847Z,101631.22
2022-10-10T01:56:15.940Z,101632.09
2022-10-10T01:59:38.030Z,101624.28
2022-10-10T02:02:51.982Z,101625.19
2022-10-10T02:06:03.656Z,101623.41
2022-10-10T02:09:16.029Z,101619.09
2022-10-10T02:12:23.475Z,101610.41
2022-10-10T02:15:33.434Z,101603.44
2022-10-10T02:18:39.529Z,101599.09
2022-10-10T02:21:44.279Z,101602.59
2022-10-10T02:24:47.858Z,101598.25
2022-10-10T02:28:07.618Z,101590.44
2022-10-10T02:31:18.615Z,101585.22
2022-10-10T02:34:30.805Z,101583.53
2022-10-10T02:37:35.558Z,101587.00
2022-10-10T02:40:43.051Z,101582.66
2022-10-10T02:43:47.607Z,101581.81
2022-10-10T02:46:51.394Z,101577.47
2022-10-10T02:49:56.395Z,101566.19
2022-10-10T02:53:00.960Z,101563.59
2022-10-10T02:56:04.795Z,101568.78
2022-10-10T02:59:08.521Z,101569.66
2022-10-10T03:02:13.925Z,101558.38
2022-10-10T03:05:19.124Z,101564.47
2022-10-10T03:08:22.818Z,101565.34
2022-10-10T03:11:26.558Z,101563.63
2022-10-10T03:14:30.166Z,101548.88
2022-10-10T03:17:33.784Z,101560.19
2022-10-10T03:20:38.819Z,101555.84
2022-10-10T03:23:42.715Z,101556.72
2022-10-10T03:26:46.339Z,101564.56
2022-10-10T03:29:49.951Z,101554.16
2022-10-10T03:32:53.969Z,101558.50
2022-10-10T03:35:59.187Z,101555.03
2022-10-10T03:39:02.954Z,101552.47
2022-10-10T03:42:06.858Z,101547.25
2022-10-10T03:45:11.310Z,101545.53
2022-10-10T03:48:15.655Z,101549.88
2022-10-10T03:51:20.874Z,101543.81
2022-10-10T03:54:24.534Z,101543.81
2022-10-10T03:57:28.160Z,101549.88
2022-10-10T04:00:31.888Z,101543.81
2022-10-10T04:03:35.439Z,101536.00
2022-10-10T04:06:40.459Z,101537.75
2022-10-10T04:09:44.023Z,101532.53
2022-10-10T04:12:47.784Z,101522.13
2022-10-10T04:15:52.555Z,101528.19
2022-10-10T04:18:56.118Z,101516.94
2022-10-10T04:22:01.066Z,101516.94
2022-10-10T04:25:04.960Z,101516.94
2022-10-10T04:28:08.731Z,101518.69
2022-10-10T04:31:12.351Z,101510.00
2022-10-10T04:34:16.241Z,101510.91
2022-10-10T04:37:21.149Z,101500.50
2022-10-10T04:40:26.796Z,101494.38
2022-10-10T04:43:30.704Z,101497.88
2022-10-10T04:46:36.269Z,101500.47
2022-10-10T04:49:42.126Z,101493.56
2022-10-10T04:52:47.362Z,101493.56
2022-10-10T04:55:51.268Z,101486.63
2022-10-10T04:58:55.148Z,101482.28
2022-10-10T05:02:01.728Z,101486.63
2022-10-10T05:05:06.942Z,101487.50
2022-10-10T05:08:11.880Z,101487.53
2022-10-10T05:11:15.520Z,101487.53
2022-10-10T05:14:19.227Z,101481.44
2022-10-10T05:17:22.911Z,101476.25
2022-10-10T05:20:26.548Z,101474.53
2022-10-10T05:23:32.139Z,101473.69
2022-10-10T05:26:39.709Z,101476.28
2022-10-10T05:29:46.119Z,101480.59
2022-10-10T05:32:50.009Z,101475.44
2022-10-10T05:35:53.870Z,101467.63
2022-10-10T05:38:59.748Z,101469.34
2022-10-10T05:42:03.467Z,101465.03
2022-10-10T05:45:08.388Z,101473.69
2022-10-10T05:48:12.043Z,101472.81
2022-10-10T05:51:15.785Z,101478.03
2022-10-10T05:54:21.487Z,101466.75
2022-10-10T05:57:25.160Z,101466.75
2022-10-10T06:00:28.984Z,101465.03
2022-10-10T06:03:33.106Z,101463.31
2022-10-10T06:06:36.695Z,101462.44
2022-10-10T06:09:41.615Z,101466.75
2022-10-10T06:12:45.318Z,101464.16
2022-10-10T06:15:53.216Z,101460.66
2022-10-10T06:18:57.815Z,101465.84
2022-10-10T06:22:01.583Z,101456.34
2022-10-10T06:25:15.205Z,101460.66
2022-10-10T06:28:27.987Z,101456.28
2022-10-10T06:31:31.777Z,101451.94
2022-10-10T06:34:36.436Z,101452.81
2022-10-10T06:37:40.049Z,101453.63
2022-10-10T06:40:45.980Z,101451.88
2022-10-10T06:43:51.922Z,101449.28
2022-10-10T06:46:55.678Z,101450.97
2022-10-10T06:50:00.494Z,101450.03
2022-10-10T06:53:04.766Z,101449.09
2022-10-10T06:56:17.455Z,101450.81
2022-10-10T06:59:21.135Z,101451.56
2022-10-10T07:02:25.097Z,101443.66
2022-10-10T07:05:28.876Z,101445.31
2022-10-10T07:08:34.700Z,101445.22
2022-10-10T07:11:41.676Z,101439.03
2022-10-10T07:14:45.258Z,101445.03
2022-10-10T07:17:54.119Z,101435.31
2022-10-10T07:20:59.222Z,101440.44
2022-10-10T07:24:02.968Z,101429.00
2022-10-10T07:27:09.017Z,101422.78
2022-10-10T07:30:15.098Z,101424.28
2022-10-10T07:33:18.735Z,101428.41
2022-10-10T07:36:22.423Z,101430.69
2022-10-10T07:39:27.090Z,101431.41
2022-10-10T07:42:32.094Z,101426.88
2022-10-10T07:45:37.696Z,101422.25
2022-10-10T07:48:41.371Z,101418.50
2022-10-10T07:51:44.992Z,101423.41
2022-10-10T07:54:48.608Z,101418.84
2022-10-10T07:57:53.788Z,101412.44
2022-10-10T08:01:04.750Z,101410.06
2022-10-10T08:04:08.371Z,101400.44
2022-10-10T08:07:12.035Z,101409.75
2022-10-10T08:10:15.767Z,101415.34
2022-10-10T08:13:20.744Z,101402.97
2022-10-10T08:16:24.577Z,101399.16
2022-10-10T08:19:28.233Z,101393.63
2022-10-10T08:22:34.027Z,101394.06
2022-10-10T08:25:37.803Z,101390.91
2022-10-10T08:28:44.107Z,101377.34
2022-10-10T08:31:47.817Z,101379.88
2022-10-10T08:34:51.595Z,101367.28
2022-10-10T08:37:56.072Z,101377.22
2022-10-10T08:41:07.602Z,101362.41
2022-10-10T08:44:24.013Z,101361.69
2022-10-10T08:47:40.371Z,101357.97
2022-10-10T08:50:50.705Z,101357.31
2022-10-10T08:54:00.200Z,101363.69
2022-10-10T08:57:15.011Z,101355.91
2022-10-10T09:00:25.164Z,101355.28
2022-10-10T09:03:40.636Z,101357.88
2022-10-10T09:07:07.736Z,101348.84
2022-10-10T09:10:25.765Z,101347.69
2022-10-10T09:13:37.535Z,101348.81
2022-10-10T09:16:57.240Z,101343.66
2022-10-10T09:20:19.217Z,101352.41
2022-10-10T09:23:29.646Z,101343.63
2022-10-10T09:26:41.625Z,101339.81
2022-10-10T09:29:53.474Z,101350.81
2022-10-10T09:33:09.404Z,101343.41
2022-10-10T09:36:21.118Z,101343.09
2022-10-10T09:39:37.135Z,101340.78
2022-10-10T09:42:41.584Z,101336.00
2022-10-10T09:45:53.067Z,101337.66
2022-10-10T09:48:59.623Z,101326.88
2022-10-10T09:52:24.093Z,101335.94
2022-10-10T09:55:36.471Z,101336.09
2022-10-10T09:58:44.413Z,101338.44
2022-10-10T10:02:10.220Z,101329.56
2022-10-10T10:05:28.937Z,101330.72
2022-10-10T10:08:35.742Z,101326.50
2022-10-10T10:11:40.763Z,101337.59
2022-10-10T10:14:46.904Z,101333.59
2022-10-10T10:18:12.690Z,101338.66
2022-10-10T10:21:24.344Z,101333.75
2022-10-10T10:24:36.434Z,101333.47
2022-10-10T10:27:40.119Z,101330.59
2022-10-10T10:30:46.296Z,101336.19
2022-10-10T10:34:07.148Z,101332.25
2022-10-10T10:37:23.308Z,101344.47
2022-10-10T10:40:38.936Z,101340.03
2022-10-10T10:44:28.459Z,101330.66
2022-10-10T10:47:49.794Z,101326.31
2022-10-10T10:50:58.597Z,101325.00
2022-10-10T10:54:24.296Z,101316.44
2022-10-10T10:58:04.686Z,101320.09
2022-10-10T11:01:44.815Z,101324.88
2022-10-10T11:05:30.261Z,101332.44
2022-10-10T11:09:01.827Z,101327.91
2022-10-10T11:12:23.435Z,101335.44
2022-10-10T11:16:01.438Z,101326.75
2022-10-10T11:19:18.463Z,101343.44
2022-10-10T11:22:26.997Z,101331.91
2022-10-10T11:25:37.689Z,101336.13
2022-10-10T11:28:51.751Z,101333.91
2022-10-10T11:32:01.186Z,101328.81
2022-10-10T11:35:19.372Z,101319.91
2022-10-10T11:38:32.888Z,101314.97
2022-10-10T11:41:42.302Z,101325.25
2022-10-10T11:44:54.435Z,101317.31
2022-10-10T11:48:13.066Z,101318.88
2022-10-10T11:51:32.405Z,101329.16
2022-10-10T11:54:45.557Z,101326.97
2022-10-10T11:57:56.854Z,101324.47
2022-10-10T12:01:11.436Z,101321.09
2022-10-10T12:04:15.039Z,101323.50
2022-10-10T12:07:25.232Z,101322.50
2022-10-10T12:10:35.558Z,101318.53
2022-10-10T12:13:45.591Z,101310.69
2022-10-10T12:16:53.699Z,101306.97
2022-10-10T12:20:08.984Z,101304.91
2022-10-10T12:23:28.818Z,101305.63
2022-10-10T12:27:27.602Z,101299.78
2022-10-10T12:30:31.672Z,101302.16
2022-10-10T12:34:04.336Z,101305.56
2022-10-10T12:37:26.168Z,101304.31
2022-10-10T12:40:29.833Z,101306.88
2022-10-10T12:43:50.931Z,101300.97
2022-10-10T12:47:59.736Z,101298.00
2022-10-10T12:51:01.614Z,101306.13
2022-10-10T12:54:08.558Z,101299.81
2022-10-10T12:57:22.873Z,101296.75
2022-10-10T13:00:36.755Z,101299.47
2022-10-10T13:03:47.662Z,101299.38
2022-10-10T13:06:57.613Z,101303.00
2022-10-10T13:10:20.154Z,101296.56
2022-10-10T13:13:24.122Z,101299.28
2022-10-10T13:16:34.016Z,101300.53
2022-10-10T13:19:42.928Z,101292.81
2022-10-10T13:22:48.180Z,101297.00
2022-10-10T13:25:51.955Z,101295.84
2022-10-10T13:28:58.051Z,101288.13
2022-10-10T13:32:06.227Z,101297.56
2022-10-10T13:35:18.385Z,101307.69
2022-10-10T13:38:27.355Z,101306.28
2022-10-10T13:41:31.293Z,101309.13
2022-10-10T13:44:50.449Z,101309.13
2022-10-10T13:47:58.467Z,101306.56
2022-10-10T13:51:10.441Z,101312.72
2022-10-10T13:54:42.867Z,101316.13
2022-10-10T13:57:47.906Z,101312.25
2022-10-10T14:00:58.085Z,101319.63
2022-10-10T14:04:21.715Z,101324.69
2022-10-10T14:07:27.918Z,101327.00
2022-10-10T14:10:36.057Z,101332.50
2022-10-10T14:13:40.331Z,101337.47
2022-10-10T14:16:43.963Z,101338.84
2022-10-10T14:19:49.571Z,101342.66
2022-10-10T14:22:53.321Z,101338.69
2022-10-10T14:25:59.636Z,101341.53
2022-10-10T14:29:03.323Z,101340.97
2022-10-10T14:32:07.597Z,101342.84
2022-10-10T14:35:14.219Z,101348.25
2022-10-10T14:38:18.601Z,101346.50
2022-10-10T14:41:23.535Z,101341.38
2022-10-10T14:44:27.231Z,101349.41
2022-10-10T14:47:30.895Z,101345.84
2022-10-10T14:50:37.483Z,101351.06
2022-10-10T14:53:41.358Z,101356.63
2022-10-10T14:57:08.597Z,101373.47
2022-10-10T15:00:17.271Z,101377.31
2022-10-10T15:03:21.211Z,101377.19
2022-10-10T15:06:24.813Z,101379.22
2022-10-10T15:09:41.554Z,101384.88
2022-10-10T15:12:50.037Z,101405.00
2022-10-10T15:15:53.683Z,101414.00
2022-10-10T15:18:57.362Z,101421.81
2022-10-10T15:22:00.930Z,101425.34
2022-10-10T15:25:05.520Z,101432.31
2022-10-10T15:28:11.359Z,101438.97
2022-10-10T15:31:15.044Z,101457.06
2022-10-10T15:34:19.208Z,101459.00
2022-10-10T15:37:26.952Z,101461.81
2022-10-10T15:40:30.599Z,101469.00
2022-10-10T15:43:45.588Z,101469.22
2022-10-10T15:46:49.246Z,101481.56
2022-10-10T15:49:52.811Z,101489.81
2022-10-10T15:52:56.510Z,101497.88
2022-10-10T15:56:00.086Z,101502.50
2022-10-10T15:59:05.512Z,101508.81
2022-10-10T16:02:10.760Z,101520.38
2022-10-10T16:05:14.383Z,101533.63
2022-10-10T16:08:18.971Z,101541.75
2022-10-10T16:11:25.249Z,101548.91
2022-10-10T16:14:30.515Z,101550.84
2022-10-10T16:17:34.185Z,101557.91
2022-10-10T16:20:40.294Z,101564.19
2022-10-10T16:23:43.859Z,101573.97
2022-10-10T16:26:47.570Z,101572.44
2022-10-10T16:29:52.581Z,101590.09
2022-10-10T16:32:56.304Z,101593.72
2022-10-10T16:35:59.971Z,101606.06
2022-10-10T16:39:03.925Z,101603.50
2022-10-10T16:42:07.734Z,101611.50
2022-10-10T16:45:13.580Z,101625.50
2022-10-10T16:48:17.145Z,101625.56
2022-10-10T16:51:23.695Z,101629.06
2022-10-10T16:54:27.408Z,101648.41
2022-10-10T16:57:30.954Z,101666.31
2022-10-10T17:00:36.215Z,101683.91
2022-10-10T17:03:39.943Z,101686.91
2022-10-10T17:06:43.502Z,101691.44
2022-10-10T17:09:47.168Z,101696.06
2022-10-10T17:12:50.933Z,101699.50
2022-10-10T17:16:04.348Z,101704.91
2022-10-10T17:19:18.315Z,101711.13
2022-10-10T17:22:21.992Z,101719.06
2022-10-10T17:25:25.575Z,101722.56
2022-10-10T17:28:29.435Z,101732.28
2022-10-10T17:31:34.489Z,101742.06
2022-10-10T17:34:38.208Z,101739.56
2022-10-10T17:37:41.852Z,101740.44
2022-10-10T17:40:45.808Z,101752.78
2022-10-10T17:43:50.010Z,101757.31
2022-10-10T17:46:54.999Z,101752.19
2022-10-10T17:49:58.583Z,101766.34
2022-10-10T17:53:02.193Z,101770.69
2022-10-10T17:56:12.083Z,101788.19
2022-10-10T17:59:15.864Z,101785.69
2022-10-10T18:02:21.156Z,101791.28
2022-10-10T18:05:24.816Z,101801.09
2022-10-10T18:08:28.506Z,101800.31
2022-10-10T18:11:33.113Z,101804.84
2022-10-10T18:14:36.675Z,101812.75
2022-10-10T18:17:41.751Z,101813.78
2022-10-10T18:20:46.225Z,101823.47
2022-10-10T18:23:50.292Z,101825.34
2022-10-10T18:26:54.101Z,101826.28
2022-10-10T18:29:57.798Z,101829.88
2022-10-10T18:33:02.769Z,101840.47
2022-10-10T18:36:08.105Z,101850.16
2022-10-10T18:39:29.455Z,101860.75
2022-10-10T18:42:36.749Z,101860.78
2022-10-10T18:45:40.635Z,101868.66
2022-10-10T18:48:49.025Z,101877.34
2022-10-10T18:51:55.550Z,101880.03
2022-10-10T18:55:01.985Z,101878.34
2022-10-10T18:58:07.298Z,101881.91
2022-10-10T19:01:13.626Z,101883.63
2022-10-10T19:04:20.791Z,101886.31
2022-10-10T19:07:24.560Z,101888.94
2022-10-10T19:10:28.261Z,101894.25
2022-10-10T19:13:32.636Z,101897.78
2022-10-10T19:16:37.127Z,101909.19
2022-10-10T19:19:42.132Z,101904.88
2022-10-10T19:22:45.790Z,101917.16
2022-10-10T19:25:49.359Z,101925.91
2022-10-10T19:28:53.316Z,101924.25
2022-10-10T19:31:57.362Z,101928.69
2022-10-10T19:35:02.379Z,101922.66
2022-10-10T19:38:06.767Z,101934.00
2022-10-10T19:41:14.310Z,101929.69
2022-10-10T19:44:17.924Z,101937.66
2022-10-10T19:47:21.713Z,101944.63
2022-10-10T19:50:26.789Z,101945.50
2022-10-10T19:53:31.136Z,101947.34
2022-10-10T19:56:34.800Z,101950.00
2022-10-10T19:59:38.803Z,101955.28
2022-10-10T20:02:43.911Z,101963.16
2022-10-10T20:05:49.168Z,101964.03
2022-10-10T20:08:52.697Z,101971.06
2022-10-10T20:11:56.502Z,101977.19
2022-10-10T20:15:00.218Z,101984.25
2022-10-10T20:18:03.944Z,101979.03
2022-10-10T20:21:17.734Z,101986.03
2022-10-10T20:24:21.614Z,101989.56
2022-10-10T20:27:30.193Z,101982.56
2022-10-10T20:30:36.247Z,101996.53
2022-10-10T20:33:39.860Z,101998.28
2022-10-10T20:36:50.205Z,102004.41
2022-10-10T20:39:54.234Z,102005.28
2022-10-10T20:42:59.547Z,102002.69
2022-10-10T20:46:09.346Z,102022.78
2022-10-10T20:49:17.440Z,102027.16
2022-10-10T20:52:23.043Z,102029.78
2022-10-10T20:55:27.293Z,102039.34
2022-10-10T20:58:31.026Z,102041.09
2022-10-10T21:01:35.610Z,102041.16
2022-10-10T21:04:39.408Z,102051.59
2022-10-10T21:07:45.926Z,102045.50
2022-10-10T21:10:49.523Z,102055.97
2022-10-10T21:13:56.736Z,102051.63
2022-10-10T21:17:00.434Z,102067.34
2022-10-10T21:20:04.185Z,102076.06
2022-10-10T21:23:09.399Z,102069.09
2022-10-10T21:26:16.723Z,102077.81
2022-10-10T21:29:20.445Z,102078.69
2022-10-10T21:32:24.032Z,102073.50
2022-10-10T21:35:27.811Z,102084.84
2022-10-10T21:38:32.789Z,102082.22
2022-10-10T21:41:38.327Z,102086.59
2022-10-10T21:44:42.779Z,102092.69
2022-10-10T21:47:47.484Z,102096.16
2022-10-10T21:50:51.054Z,102098.78
2022-10-10T21:53:59.575Z,102097.91
2022-10-10T21:57:03.079Z,102105.72
2022-10-10T22:00:10.167Z,102119.63
2022-10-10T22:03:13.935Z,102121.38
2022-10-10T22:06:21.108Z,102123.13
2022-10-10T22:09:26.046Z,102127.47
2022-10-10T22:12:29.656Z,102127.47
2022-10-10T22:15:33.232Z,102129.22
2022-10-10T22:18:41.467Z,102139.69
2022-10-10T22:21:44.972Z,102143.16
2022-10-10T22:24:50.095Z,102138.78
2022-10-10T22:27:57.142Z,102144.91
2022-10-10T22:31:05.976Z,102138.81
2022-10-10T22:34:09.584Z,102155.34
2022-10-10T22:37:13.205Z,102151.03
2022-10-10T22:40:18.539Z,102151.00
2022-10-10T22:43:26.678Z,102157.13
2022-10-10T22:46:31.126Z,102156.22
2022-10-10T22:49:37.888Z,102157.09
2022-10-10T22:52:42.095Z,102164.06
2022-10-10T22:55:47.148Z,102169.28
2022-10-10T22:58:52.581Z,102168.44
2022-10-10T23:01:56.425Z,102172.78
2022-10-10T23:05:00.811Z,102178.84
2022-10-10T23:08:04.677Z,102176.25
2022-10-10T23:11:09.766Z,102179.75
2022-10-10T23:14:13.539Z,102179.75
2022-10-10T23:17:17.162Z,102188.44
2022-10-10T23:20:20.742Z,102193.69
2022-10-10T23:23:24.543Z,102189.31
2022-10-10T23:26:29.595Z,102188.44
2022-10-10T23:29:34.061Z,102184.97
2022-10-10T23:32:37.718Z,102198.00
2022-10-10T23:35:41.401Z,102204.09
2022-10-10T23:38:45.715Z,102202.38
2022-10-10T23:41:50.713Z,102207.59
2022-10-10T23:44:54.302Z,102189.31
2022-10-10T23:47:57.967Z,102200.63
2022-10-10T23:51:01.572Z,102210.22
2022-10-10T23:54:06.930Z,102210.19
2022-10-10T23:57:11.930Z,102211.03
